Bookmark and Share
Track history (hours):
 

Port Star

Last reported at 2014-Apr-16 08:31 UTC. Time now 2014-Apr-17 03:58 UTC.
Position N 53°13' E 003°34'.

Length 175.5 m; beam 29.4 m.

Type: Ship. MMSI: 356105000.

NotesDate/timePositionNaut miles runAvg speedWind from/ knotsBaromVisibWave heightAir tempDewpointWater temp
2014-Apr-16 08:31N 53°13' E 003°34'1212.1
2014-Apr-16 07:33N 53°03' E 003°26'2613.0
2014-Apr-16 05:33N 52°37' E 003°17'1414.2
2014-Apr-16 04:33N 52°23' E 003°13'1414.2
2014-Apr-16 03:33N 52°09' E 003°09'3214.4
2014-Apr-16 01:19N 51°45' E 002°35'1114.0
2014-Apr-16 00:33N 51°36' E 002°24'1313.4
2014-Apr-15 23:33N 51°26' E 002°12'1312.5
2014-Apr-15 22:33N 51°14' E 002°04'1212.1
2014-Apr-15 21:33N 51°07' E 001°47'1110.5
2014-Apr-15 20:33N 50°60' E 001°36'10 9.5
2014-Apr-15 19:31N 50°52' E 001°26'10 9.6
2014-Apr-15 18:27N 50°43' E 001°20'2010.7
2014-Apr-15 16:33N 50°29' E 000°56'1110.7
2014-Apr-15 15:33N 50°26' E 000°40'1110.9
2014-Apr-15 14:33N 50°24' E 000°23'47 9.4
2014-Apr-15 09:33N 50°11' W 000°48'1414.7
2014-Apr-15 08:34N 50°07' W 001°10'  
2014-Apr-11 01:12N 40°13' W 028°39'1112.4
2014-Apr-11 00:18N 40°10' W 028°53'1012.6
2014-Apr-10 23:33N 40°07' W 029°06'1313.0
2014-Apr-10 22:31N 40°04' W 029°22'1513.1
2014-Apr-10 21:21N 39°60' W 029°42'1113.4
2014-Apr-10 20:32N 39°57' W 029°55'1313.1
2014-Apr-10 19:33N 39°53' W 030°11'16 8.2
2014-Apr-10 17:34N 39°37' W 030°08'1413.2
2014-Apr-10 16:28N 39°29' W 030°24'1712.6
2014-Apr-10 15:05N 39°22' W 030°44'1012.5
2014-Apr-10 14:16N 39°17' W 030°55'  

Dump ship's entire track history

sailing weather and tide predictions

Port Star — 3EAS6 — position and weather